sensor_id;sensor_type;location;lat;lon;timestamp;pressure;altitude;pressure_sealevel;temperature;humidity
34931;BME280;21134;49.646;8.560;2022-09-12T00:01:34;100742.72;;;14.32;92.73
34931;BME280;21134;49.646;8.560;2022-09-12T00:04:01;100747.97;;;14.23;92.93
34931;BME280;21134;49.646;8.560;2022-09-12T00:06:29;100756.59;;;14.23;92.13
34931;BME280;21134;49.646;8.560;2022-09-12T00:08:59;100740.34;;;14.16;92.53
34931;BME280;21134;49.646;8.560;2022-09-12T00:11:27;100739.53;;;14.13;92.55
34931;BME280;21134;49.646;8.560;2022-09-12T00:13:55;100745.66;;;14.04;92.94
34931;BME280;21134;49.646;8.560;2022-09-12T00:16:24;100743.97;;;13.97;93.48
34931;BME280;21134;49.646;8.560;2022-09-12T00:18:51;100743.97;;;13.97;93.92
34931;BME280;21134;49.646;8.560;2022-09-12T00:21:18;100743.94;;;14.02;93.80
34931;BME280;21134;49.646;8.560;2022-09-12T00:23:45;100736.28;;;13.99;93.81
34931;BME280;21134;49.646;8.560;2022-09-12T00:26:13;100735.34;;;14.04;93.86
34931;BME280;21134;49.646;8.560;2022-09-12T00:28:41;100738.81;;;14.00;92.55
34931;BME280;21134;49.646;8.560;2022-09-12T00:31:09;100729.44;;;13.98;93.02
34931;BME280;21134;49.646;8.560;2022-09-12T00:33:37;100732.88;;;13.95;93.41
34931;BME280;21134;49.646;8.560;2022-09-12T00:36:05;100733.66;;;14.00;92.96
34931;BME280;21134;49.646;8.560;2022-09-12T00:38:31;100735.47;;;13.92;93.13
34931;BME280;21134;49.646;8.560;2022-09-12T00:40:58;100732.94;;;13.89;92.79
34931;BME280;21134;49.646;8.560;2022-09-12T00:43:37;100731.28;;;13.85;92.69
34931;BME280;21134;49.646;8.560;2022-09-12T00:46:10;100733.94;;;13.74;93.05
34931;BME280;21134;49.646;8.560;2022-09-12T00:48:42;100733.13;;;13.72;93.82
34931;BME280;21134;49.646;8.560;2022-09-12T00:51:11;100725.34;;;13.75;93.45
34931;BME280;21134;49.646;8.560;2022-09-12T00:53:40;100723.69;;;13.72;93.98
34931;BME280;21134;49.646;8.560;2022-09-12T00:56:08;100724.53;;;13.73;93.93
34931;BME280;21134;49.646;8.560;2022-09-12T00:58:40;100725.47;;;13.66;93.59
34931;BME280;21134;49.646;8.560;2022-09-12T01:01:09;100726.31;;;13.65;94.10
34931;BME280;21134;49.646;8.560;2022-09-12T01:03:35;100725.47;;;13.64;93.96
34931;BME280;21134;49.646;8.560;2022-09-12T01:06:06;100731.50;;;13.63;94.06
34931;BME280;21134;49.646;8.560;2022-09-12T01:08:34;100728.78;;;13.79;93.09
34931;BME280;21134;49.646;8.560;2022-09-12T01:11:03;100723.69;;;13.72;92.99
34931;BME280;21134;49.646;8.560;2022-09-12T01:13:31;100722.88;;;13.67;93.48
34931;BME280;21134;49.646;8.560;2022-09-12T01:16:01;100718.59;;;13.66;93.16
34931;BME280;21134;49.646;8.560;2022-09-12T01:18:33;100715.22;;;13.63;93.13
34931;BME280;21134;49.646;8.560;2022-09-12T01:21:19;100713.53;;;13.60;93.63
34931;BME280;21134;49.646;8.560;2022-09-12T01:24:32;100719.56;;;13.56;94.00
34931;BME280;21134;49.646;8.560;2022-09-12T01:27:26;100713.53;;;13.59;94.08
34931;BME280;21134;49.646;8.560;2022-09-12T01:33:15;100710.16;;;13.54;94.35
34931;BME280;21134;49.646;8.560;2022-09-12T01:35:53;100701.56;;;13.56;94.00
34931;BME280;21134;49.646;8.560;2022-09-12T01:38:27;100698.13;;;13.56;94.36
34931;BME280;21134;49.646;8.560;2022-09-12T01:41:05;100702.44;;;13.54;94.39
34931;BME280;21134;49.646;8.560;2022-09-12T01:43:36;100704.16;;;13.52;94.56
34931;BME280;21134;49.646;8.560;2022-09-12T01:46:09;100706.72;;;13.56;94.72
34931;BME280;21134;49.646;8.560;2022-09-12T01:48:43;100704.16;;;13.53;94.56
34931;BME280;21134;49.646;8.560;2022-09-12T01:51:15;100698.16;;;13.54;94.39
34931;BME280;21134;49.646;8.560;2022-09-12T01:53:47;100699.88;;;13.52;93.97
34931;BME280;21134;49.646;8.560;2022-09-12T01:56:18;100691.34;;;13.50;94.37
34931;BME280;21134;49.646;8.560;2022-09-12T01:58:49;100693.91;;;13.48;93.41
34931;BME280;21134;49.646;8.560;2022-09-12T02:01:20;100687.09;;;13.46;93.90
34931;BME280;21134;49.646;8.560;2022-09-12T02:03:53;100694.00;;;13.41;93.77
34931;BME280;21134;49.646;8.560;2022-09-12T02:06:25;100690.53;;;13.46;93.65
34931;BME280;21134;49.646;8.560;2022-09-12T02:08:56;100691.41;;;13.42;93.51
34931;BME280;21134;49.646;8.560;2022-09-12T02:11:24;100685.47;;;13.37;93.84
34931;BME280;21134;49.646;8.560;2022-09-12T02:13:54;100686.31;;;13.36;93.83
34931;BME280;21134;49.646;8.560;2022-09-12T02:16:25;100689.72;;;13.38;93.94
34931;BME280;21134;49.646;8.560;2022-09-12T02:18:58;100680.34;;;13.33;93.85
34931;BME280;21134;49.646;8.560;2022-09-12T02:21:26;100684.66;;;13.32;94.13
34931;BME280;21134;49.646;8.560;2022-09-12T02:23:58;100688.09;;;13.30;94.67
34931;BME280;21134;49.646;8.560;2022-09-12T02:26:29;100671.81;;;13.34;94.40
34931;BME280;21134;49.646;8.560;2022-09-12T02:28:57;100674.41;;;13.29;94.20
34931;BME280;21134;49.646;8.560;2022-09-12T02:31:27;100679.59;;;13.24;94.92
34931;BME280;21134;49.646;8.560;2022-09-12T02:34:08;100677.03;;;13.18;94.25
34931;BME280;21134;49.646;8.560;2022-09-12T02:36:41;100677.91;;;13.16;94.50
34931;BME280;21134;49.646;8.560;2022-09-12T02:39:11;100676.22;;;13.15;94.00
34931;BME280;21134;49.646;8.560;2022-09-12T02:41:38;100676.25;;;13.10;94.01
34931;BME280;21134;49.646;8.560;2022-09-12T02:44:04;100673.69;;;13.10;93.51
34931;BME280;21134;49.646;8.560;2022-09-12T02:46:35;100673.69;;;13.07;93.50
34931;BME280;21134;49.646;8.560;2022-09-12T02:49:05;100674.63;;;13.00;94.53
34931;BME280;21134;49.646;8.560;2022-09-12T02:51:31;100672.00;;;13.04;94.30
34931;BME280;21134;49.646;8.560;2022-09-12T02:53:58;100667.78;;;12.99;94.70
34931;BME280;21134;49.646;8.560;2022-09-12T02:56:27;100671.19;;;13.01;93.70
34931;BME280;21134;49.646;8.560;2022-09-12T02:58:56;100667.84;;;12.93;94.25
34931;BME280;21134;49.646;8.560;2022-09-12T03:01:35;100666.09;;;12.92;93.65
34931;BME280;21134;49.646;8.560;2022-09-12T03:04:47;100665.22;;;12.97;93.36
34931;BME280;21134;49.646;8.560;2022-09-12T03:07:29;100660.09;;;12.96;93.53
34931;BME280;21134;49.646;8.560;2022-09-12T03:10:02;100654.94;;;12.99;93.27
34931;BME280;21134;49.646;8.560;2022-09-12T03:12:43;100662.66;;;12.94;92.97
34931;BME280;21134;49.646;8.560;2022-09-12T03:15:20;100667.00;;;12.89;93.93
34931;BME280;21134;49.646;8.560;2022-09-12T03:17:56;100661.03;;;12.87;94.19
34931;BME280;21134;49.646;8.560;2022-09-12T03:20:38;100657.50;;;12.99;93.77
34931;BME280;21134;49.646;8.560;2022-09-12T03:23:11;100666.13;;;12.93;93.51
34931;BME280;21134;49.646;8.560;2022-09-12T03:25:45;100659.28;;;12.92;93.56
34931;BME280;21134;49.646;8.560;2022-09-12T03:28:15;100652.41;;;12.94;92.92
34931;BME280;21134;49.646;8.560;2022-09-12T03:30:44;100657.56;;;12.91;92.99
34931;BME280;21134;49.646;8.560;2022-09-12T03:33:11;100655.88;;;12.87;93.88
34931;BME280;21134;49.646;8.560;2022-09-12T03:35:39;100655.06;;;12.84;93.79
34931;BME280;21134;49.646;8.560;2022-09-12T03:38:06;100655.88;;;12.86;93.34
34931;BME280;21134;49.646;8.560;2022-09-12T03:40:33;100655.09;;;12.77;93.77
34931;BME280;21134;49.646;8.560;2022-09-12T03:42:59;100650.00;;;12.74;94.05
34931;BME280;21134;49.646;8.560;2022-09-12T03:45:26;100654.25;;;12.75;94.20
34931;BME280;21134;49.646;8.560;2022-09-12T03:47:53;100660.25;;;12.76;93.84
34931;BME280;21134;49.646;8.560;2022-09-12T03:50:19;100654.31;;;12.71;94.06
34931;BME280;21134;49.646;8.560;2022-09-12T03:52:47;100648.31;;;12.69;93.96
34931;BME280;21134;49.646;8.560;2022-09-12T03:55:14;100654.28;;;12.74;94.18
34931;BME280;21134;49.646;8.560;2022-09-12T03:57:41;100651.72;;;12.69;93.70
34931;BME280;21134;49.646;8.560;2022-09-12T04:00:09;100656.06;;;12.64;93.80
34931;BME280;21134;49.646;8.560;2022-09-12T04:02:36;100662.06;;;12.62;94.58
34931;BME280;21134;49.646;8.560;2022-09-12T04:05:03;100658.63;;;12.64;94.73
34931;BME280;21134;49.646;8.560;2022-09-12T04:07:30;100651.78;;;12.60;93.84
34931;BME280;21134;49.646;8.560;2022-09-12T04:09:57;100658.66;;;12.56;93.56
34931;BME280;21134;49.646;8.560;2022-09-12T04:12:24;100653.56;;;12.52;93.50
34931;BME280;21134;49.646;8.560;2022-09-12T04:14:50;100656.13;;;12.50;94.12
34931;BME280;21134;49.646;8.560;2022-09-12T04:17:17;100662.19;;;12.45;94.62
34931;BME280;21134;49.646;8.560;2022-09-12T04:19:43;100657.91;;;12.42;94.46
34931;BME280;21134;49.646;8.560;2022-09-12T04:22:10;100656.22;;;12.37;94.51
34931;BME280;21134;49.646;8.560;2022-09-12T04:24:36;100656.25;;;12.32;93.93
34931;BME280;21134;49.646;8.560;2022-09-12T04:27:04;100663.09;;;12.31;94.12
34931;BME280;21134;49.646;8.560;2022-09-12T04:29:31;100664.78;;;12.34;93.94
34931;BME280;21134;49.646;8.560;2022-09-12T04:31:57;100664.81;;;12.31;93.72
34931;BME280;21134;49.646;8.560;2022-09-12T04:34:24;100663.13;;;12.24;94.83
34931;BME280;21134;49.646;8.560;2022-09-12T04:36:50;100663.16;;;12.22;94.00
34931;BME280;21134;49.646;8.560;2022-09-12T04:39:17;100658.84;;;12.24;94.48
34931;BME280;21134;49.646;8.560;2022-09-12T04:41:43;100663.13;;;12.28;94.46
34931;BME280;21134;49.646;8.560;2022-09-12T04:44:13;100667.38;;;12.28;93.57
34931;BME280;21134;49.646;8.560;2022-09-12T04:46:41;100664.88;;;12.20;93.41
34931;BME280;21134;49.646;8.560;2022-09-12T04:49:09;100665.72;;;12.21;92.98
34931;BME280;21134;49.646;8.560;2022-09-12T04:51:37;100664.00;;;12.23;93.65
34931;BME280;21134;49.646;8.560;2022-09-12T04:54:05;100665.66;;;12.30;93.59
34931;BME280;21134;49.646;8.560;2022-09-12T04:56:35;100663.97;;;12.27;92.77
34931;BME280;21134;49.646;8.560;2022-09-12T04:59:02;100664.84;;;12.23;93.66
34931;BME280;21134;49.646;8.560;2022-09-12T05:01:30;100660.59;;;12.21;93.72
34931;BME280;21134;49.646;8.560;2022-09-12T05:03:57;100668.31;;;12.19;93.83
34931;BME280;21134;49.646;8.560;2022-09-12T05:06:26;100664.81;;;12.25;93.53
34931;BME280;21134;49.646;8.560;2022-09-12T05:08:53;100663.06;;;12.34;93.60
34931;BME280;21134;49.646;8.560;2022-09-12T05:11:22;100652.84;;;12.30;92.09
34931;BME280;21134;49.646;8.560;2022-09-12T05:13:49;100656.28;;;12.29;93.20
34931;BME280;21134;49.646;8.560;2022-09-12T05:16:17;100662.22;;;12.31;92.68
34931;BME280;21134;49.646;8.560;2022-09-12T05:18:45;100664.00;;;12.26;92.82
34931;BME280;21134;49.646;8.560;2022-09-12T05:21:14;100660.59;;;12.21;93.55
34931;BME280;21134;49.646;8.560;2022-09-12T05:23:41;100665.69;;;12.24;93.92
34931;BME280;21134;49.646;8.560;2022-09-12T05:26:12;100663.97;;;12.29;93.73
34931;BME280;21134;49.646;8.560;2022-09-12T05:28:39;100660.53;;;12.33;94.92
34931;BME280;21134;49.646;8.560;2022-09-12T05:31:07;100663.06;;;12.36;94.63
34931;BME280;21134;49.646;8.560;2022-09-12T05:33:35;100660.44;;;12.47;95.91
34931;BME280;21134;49.646;8.560;2022-09-12T05:36:04;100665.53;;;12.53;95.99
34931;BME280;21134;49.646;8.560;2022-09-12T05:38:32;100662.91;;;12.62;97.52
34931;BME280;21134;49.646;8.560;2022-09-12T05:41:03;100660.31;;;12.67;97.60
34931;BME280;21134;49.646;8.560;2022-09-12T05:43:30;100667.13;;;12.74;97.94
34931;BME280;21134;49.646;8.560;2022-09-12T05:45:59;100660.22;;;12.79;97.93
34931;BME280;21134;49.646;8.560;2022-09-12T05:48:26;100661.91;;;12.83;98.13
34931;BME280;21134;49.646;8.560;2022-09-12T05:50:58;100664.44;;;12.89;98.40
34931;BME280;21134;49.646;8.560;2022-09-12T05:53:27;100661.81;;;12.97;98.69
34931;BME280;21134;49.646;8.560;2022-09-12T05:56:01;100659.19;;;13.01;99.20
34931;BME280;21134;49.646;8.560;2022-09-12T05:58:28;100663.41;;;13.10;98.76
34931;BME280;21134;49.646;8.560;2022-09-12T06:00:54;100667.63;;;13.19;99.22
34931;BME280;21134;49.646;8.560;2022-09-12T06:03:21;100670.09;;;13.30;99.22
34931;BME280;21134;49.646;8.560;2022-09-12T06:05:48;100665.78;;;13.33;98.76
34931;BME280;21134;49.646;8.560;2022-09-12T06:08:14;100667.44;;;13.39;98.91
34931;BME280;21134;49.646;8.560;2022-09-12T06:10:42;100661.38;;;13.46;99.15
34931;BME280;21134;49.646;8.560;2022-09-12T06:13:08;100661.34;;;13.51;98.75
34931;BME280;21134;49.646;8.560;2022-09-12T06:15:35;100658.69;;;13.58;98.21
34931;BME280;21134;49.646;8.560;2022-09-12T06:18:02;100659.47;;;13.65;97.91
34931;BME280;21134;49.646;8.560;2022-09-12T06:20:28;100659.47;;;13.65;97.79
34931;BME280;21134;49.646;8.560;2022-09-12T06:22:54;100659.47;;;13.65;98.01
34931;BME280;21134;49.646;8.560;2022-09-12T06:25:21;100650.88;;;13.69;98.65
34931;BME280;21134;49.646;8.560;2022-09-12T06:27:49;100657.59;;;13.79;98.12
34931;BME280;21134;49.646;8.560;2022-09-12T06:30:15;100656.69;;;13.85;97.51
34931;BME280;21134;49.646;8.560;2022-09-12T06:32:42;100651.47;;;13.88;97.10
34931;BME280;21134;49.646;8.560;2022-09-12T06:35:08;100647.03;;;14.01;96.83
34931;BME280;21134;49.646;8.560;2022-09-12T06:37:35;100645.31;;;14.04;96.71
34931;BME280;21134;49.646;8.560;2022-09-12T06:40:01;100654.59;;;14.13;96.40
34931;BME280;21134;49.646;8.560;2022-09-12T06:42:28;100653.72;;;14.15;96.72
34931;BME280;21134;49.646;8.560;2022-09-12T06:44:56;100640.66;;;14.31;96.11
34931;BME280;21134;49.646;8.560;2022-09-12T06:47:22;100646.66;;;14.31;96.19
34931;BME280;21134;49.646;8.560;2022-09-12T06:49:49;100654.16;;;14.45;96.20
34931;BME280;21134;49.646;8.560;2022-09-12T06:52:15;100643.72;;;14.57;95.07
34931;BME280;21134;49.646;8.560;2022-09-12T06:54:42;100653.00;;;14.68;95.22
34931;BME280;21134;49.646;8.560;2022-09-12T06:57:08;100648.78;;;14.65;95.44
34931;BME280;21134;49.646;8.560;2022-09-12T06:59:35;100650.22;;;14.81;94.31
34931;BME280;21134;49.646;8.560;2022-09-12T07:02:02;100648.31;;;14.93;94.13
34931;BME280;21134;49.646;8.560;2022-09-12T07:04:29;100649.06;;;15.01;93.87
34931;BME280;21134;49.646;8.560;2022-09-12T07:06:57;100649.59;;;15.18;92.67
34931;BME280;21134;49.646;8.560;2022-09-12T07:09:25;100643.66;;;15.16;93.23
34931;BME280;21134;49.646;8.560;2022-09-12T07:11:51;100652.03;;;15.27;93.15
34931;BME280;21134;49.646;8.560;2022-09-12T07:14:18;100657.81;;;15.40;92.54
34931;BME280;21134;49.646;8.560;2022-09-12T07:16:44;100653.34;;;15.50;92.35
34931;BME280;21134;49.646;8.560;2022-09-12T07:19:12;100660.75;;;15.70;91.94
34931;BME280;21134;49.646;8.560;2022-09-12T07:21:39;100661.25;;;15.86;92.00
34931;BME280;21134;49.646;8.560;2022-09-12T07:24:06;100656.03;;;15.89;91.57
34931;BME280;21134;49.646;8.560;2022-09-12T07:26:33;100657.53;;;16.00;91.38
34931;BME280;21134;49.646;8.560;2022-09-12T07:29:00;100653.88;;;16.11;91.29
34931;BME280;21134;49.646;8.560;2022-09-12T07:31:28;100652.00;;;16.19;91.63
34931;BME280;21134;49.646;8.560;2022-09-12T07:33:55;100656.84;;;16.33;90.07
34931;BME280;21134;49.646;8.560;2022-09-12T07:36:24;100655.75;;;16.43;89.56
34931;BME280;21134;49.646;8.560;2022-09-12T07:38:54;100659.22;;;16.43;90.44
34931;BME280;21134;49.646;8.560;2022-09-12T07:41:23;100653.72;;;16.57;89.88
34931;BME280;21134;49.646;8.560;2022-09-12T07:43:51;100655.97;;;16.71;89.45
34931;BME280;21134;49.646;8.560;2022-09-12T07:46:18;100658.41;;;16.79;88.17
34931;BME280;21134;49.646;8.560;2022-09-12T07:48:48;100653.91;;;16.87;88.39
34931;BME280;21134;49.646;8.560;2022-09-12T07:51:15;100656.41;;;16.90;88.18
34931;BME280;21134;49.646;8.560;2022-09-12T07:53:43;100655.38;;;16.97;88.59
34931;BME280;21134;49.646;8.560;2022-09-12T07:56:10;100647.16;;;17.15;87.04
34931;BME280;21134;49.646;8.560;2022-09-12T07:58:38;100650.56;;;17.17;86.91
34931;BME280;21134;49.646;8.560;2022-09-12T08:01:07;100646.91;;;17.25;86.95
34931;BME280;21134;49.646;8.560;2022-09-12T08:03:34;100657.53;;;17.47;85.69
34931;BME280;21134;49.646;8.560;2022-09-12T08:06:04;100653.28;;;17.46;85.94
34931;BME280;21134;49.646;8.560;2022-09-12T08:08:31;100654.72;;;17.56;86.23
34931;BME280;21134;49.646;8.560;2022-09-12T08:11:00;100659.81;;;17.59;86.15
34931;BME280;21134;49.646;8.560;2022-09-12T08:13:28;100652.63;;;17.69;86.55
34931;BME280;21134;49.646;8.560;2022-09-12T08:15:58;100664.16;;;17.89;85.86
34931;BME280;21134;49.646;8.560;2022-09-12T08:18:26;100663.72;;;18.05;84.71
34931;BME280;21134;49.646;8.560;2022-09-12T08:20:56;100665.69;;;17.97;84.04
34931;BME280;21134;49.646;8.560;2022-09-12T08:23:23;100658.50;;;18.06;83.99
34931;BME280;21134;49.646;8.560;2022-09-12T08:25:50;100660.91;;;18.12;84.33
34931;BME280;21134;49.646;8.560;2022-09-12T08:28:18;100656.66;;;18.10;83.72
34931;BME280;21134;49.646;8.560;2022-09-12T08:30:44;100650.31;;;18.20;83.61
34931;BME280;21134;49.646;8.560;2022-09-12T08:33:11;100649.69;;;18.40;83.53
34931;BME280;21134;49.646;8.560;2022-09-12T08:35:37;100649.22;;;18.55;82.43
34931;BME280;21134;49.646;8.560;2022-09-12T08:38:04;100650.78;;;18.61;81.10
34931;BME280;21134;49.646;8.560;2022-09-12T08:40:32;100640.97;;;18.71;80.75
34931;BME280;21134;49.646;8.560;2022-09-12T08:43:01;100645.69;;;18.86;80.21
34931;BME280;21134;49.646;8.560;2022-09-12T08:45:41;100644.13;;;19.07;79.37
34931;BME280;21134;49.646;8.560;2022-09-12T08:48:12;100643.44;;;19.27;78.53
34931;BME280;21134;49.646;8.560;2022-09-12T08:50:39;100644.97;;;19.33;77.53
34931;BME280;21134;49.646;8.560;2022-09-12T08:53:11;100650.53;;;19.47;76.67
34931;BME280;21134;49.646;8.560;2022-09-12T08:55:41;100642.59;;;19.51;76.90
34931;BME280;21134;49.646;8.560;2022-09-12T08:58:11;100646.19;;;19.47;76.98
34931;BME280;21134;49.646;8.560;2022-09-12T09:00:47;100654.13;;;19.68;75.65
34931;BME280;21134;49.646;8.560;2022-09-12T09:03:55;100651.38;;;19.72;76.19
34931;BME280;21134;49.646;8.560;2022-09-12T09:06:38;100643.88;;;19.88;74.95
34931;BME280;21134;49.646;8.560;2022-09-12T09:09:15;100648.47;;;20.04;75.18
34931;BME280;21134;49.646;8.560;2022-09-12T09:11:54;100649.16;;;20.09;74.58
34931;BME280;21134;49.646;8.560;2022-09-12T09:14:39;100647.97;;;20.17;74.15
34931;BME280;21134;49.646;8.560;2022-09-12T09:17:19;100643.31;;;20.26;73.39
34931;BME280;21134;49.646;8.560;2022-09-12T09:19:54;100634.22;;;20.37;73.60
34931;BME280;21134;49.646;8.560;2022-09-12T09:22:30;100633.25;;;20.40;73.37
34931;BME280;21134;49.646;8.560;2022-09-12T09:25:03;100635.16;;;20.58;73.22
34931;BME280;21134;49.646;8.560;2022-09-12T09:27:33;100631.66;;;20.80;73.56
34931;BME280;21134;49.646;8.560;2022-09-12T09:30:01;100643.78;;;21.01;72.10
34931;BME280;21134;49.646;8.560;2022-09-12T09:32:32;100648.09;;;21.23;71.27
34931;BME280;21134;49.646;8.560;2022-09-12T09:35:14;100647.38;;;21.40;70.72
34931;BME280;21134;49.646;8.560;2022-09-12T09:37:42;100644.44;;;21.47;70.02
34931;BME280;21134;49.646;8.560;2022-09-12T09:40:16;100641.50;;;21.55;69.04
34931;BME280;21134;49.646;8.560;2022-09-12T09:42:52;100638.78;;;21.58;69.32
34931;BME280;21134;49.646;8.560;2022-09-12T09:45:25;100632.94;;;21.72;69.14
34931;BME280;21134;49.646;8.560;2022-09-12T09:47:57;100631.47;;;21.85;69.49
34931;BME280;21134;49.646;8.560;2022-09-12T09:50:25;100632.94;;;21.91;68.68
34931;BME280;21134;49.646;8.560;2022-09-12T09:52:53;100628.94;;;22.02;66.55
34931;BME280;21134;49.646;8.560;2022-09-12T09:55:24;100626.75;;;22.12;65.03
34931;BME280;21134;49.646;8.560;2022-09-12T09:57:53;100627.53;;;21.95;65.95
34931;BME280;21134;49.646;8.560;2022-09-12T10:00:29;100613.44;;;21.99;65.40
34931;BME280;21134;49.646;8.560;2022-09-12T10:03:03;100620.34;;;22.00;63.27
34931;BME280;21134;49.646;8.560;2022-09-12T10:05:33;100621.84;;;22.25;63.84
34931;BME280;21134;49.646;8.560;2022-09-12T10:08:00;100623.47;;;22.27;62.37
34931;BME280;21134;49.646;8.560;2022-09-12T10:10:27;100624.16;;;22.31;62.66
34931;BME280;21134;49.646;8.560;2022-09-12T10:13:06;100618.78;;;22.34;62.82
34931;BME280;21134;49.646;8.560;2022-09-12T10:15:33;100614.97;;;22.41;61.51
34931;BME280;21134;49.646;8.560;2022-09-12T10:18:01;100620.28;;;22.57;61.66
34931;BME280;21134;49.646;8.560;2022-09-12T10:20:31;100620.00;;;22.63;60.83
34931;BME280;21134;49.646;8.560;2022-09-12T10:22:59;100610.78;;;22.56;59.90
34931;BME280;21134;49.646;8.560;2022-09-12T10:25:26;100607.63;;;22.67;59.92
34931;BME280;21134;49.646;8.560;2022-09-12T10:27:55;100607.38;;;22.71;60.53
34931;BME280;21134;49.646;8.560;2022-09-12T10:30:23;100606.47;;;22.90;59.55
34931;BME280;21134;49.646;8.560;2022-09-12T10:32:54;100604.59;;;23.11;58.40
34931;BME280;21134;49.646;8.560;2022-09-12T10:35:27;100609.50;;;23.17;57.76
34931;BME280;21134;49.646;8.560;2022-09-12T10:37:56;100608.09;;;23.27;57.05
34931;BME280;21134;49.646;8.560;2022-09-12T10:40:25;100604.53;;;23.28;57.21
34931;BME280;21134;49.646;8.560;2022-09-12T10:42:53;100602.44;;;23.02;55.79
34931;BME280;21134;49.646;8.560;2022-09-12T10:45:25;100603.66;;;23.12;57.18
34931;BME280;21134;49.646;8.560;2022-09-12T10:47:54;100593.09;;;22.97;57.38
34931;BME280;21134;49.646;8.560;2022-09-12T10:50:26;100592.44;;;23.10;56.82
34931;BME280;21134;49.646;8.560;2022-09-12T10:52:54;100584.50;;;23.29;56.57
34931;BME280;21134;49.646;8.560;2022-09-12T10:55:24;100586.31;;;23.44;57.03
34931;BME280;21134;49.646;8.560;2022-09-12T10:58:03;100578.91;;;23.52;54.40
34931;BME280;21134;49.646;8.560;2022-09-12T11:00:33;100580.88;;;23.64;56.51
34931;BME280;21134;49.646;8.560;2022-09-12T11:03:08;100575.03;;;23.59;54.87
34931;BME280;21134;49.646;8.560;2022-09-12T11:05:51;100568.50;;;23.68;56.09
34931;BME280;21134;49.646;8.560;2022-09-12T11:08:38;100569.69;;;23.94;54.89
34931;BME280;21134;49.646;8.560;2022-09-12T11:11:11;100562.78;;;23.93;53.91
34931;BME280;21134;49.646;8.560;2022-09-12T11:14:03;100560.84;;;24.12;53.11
34931;BME280;21134;49.646;8.560;2022-09-12T11:16:37;100558.88;;;24.16;52.62
34931;BME280;21134;49.646;8.560;2022-09-12T11:19:23;100558.22;;;23.97;52.09
34931;BME280;21134;49.646;8.560;2022-09-12T11:22:06;100556.50;;;24.11;54.09
34931;BME280;21134;49.646;8.560;2022-09-12T11:24:47;100562.91;;;24.22;53.45
34931;BME280;21134;49.646;8.560;2022-09-12T11:27:29;100563.25;;;24.31;53.33
34931;BME280;21134;49.646;8.560;2022-09-12T11:30:01;100560.97;;;24.41;53.02
34931;BME280;21134;49.646;8.560;2022-09-12T11:32:45;100558.75;;;24.49;52.84
34931;BME280;21134;49.646;8.560;2022-09-12T11:35:20;100551.50;;;24.39;51.98
34931;BME280;21134;49.646;8.560;2022-09-12T11:38:06;100556.66;;;24.70;52.54
34931;BME280;21134;49.646;8.560;2022-09-12T11:40:38;100552.63;;;24.65;50.51
34931;BME280;21134;49.646;8.560;2022-09-12T11:43:15;100549.16;;;24.64;50.92
34931;BME280;21134;49.646;8.560;2022-09-12T11:45:46;100546.75;;;24.75;50.03
34931;BME280;21134;49.646;8.560;2022-09-12T11:48:18;100536.50;;;24.87;50.28
34931;BME280;21134;49.646;8.560;2022-09-12T11:50:48;100538.94;;;24.90;49.00
34931;BME280;21134;49.646;8.560;2022-09-12T11:53:18;100538.38;;;24.99;49.31
34931;BME280;21134;49.646;8.560;2022-09-12T11:55:52;100540.06;;;25.00;48.74
34931;BME280;21134;49.646;8.560;2022-09-12T11:58:23;100533.50;;;25.07;48.64
34931;BME280;21134;49.646;8.560;2022-09-12T12:00:53;100534.00;;;25.14;48.66
34931;BME280;21134;49.646;8.560;2022-09-12T12:03:27;100531.66;;;25.09;48.11
34931;BME280;21134;49.646;8.560;2022-09-12T12:05:58;100525.00;;;25.03;48.37
34931;BME280;21134;49.646;8.560;2022-09-12T12:08:31;100534.16;;;25.11;48.59
34931;BME280;21134;49.646;8.560;2022-09-12T12:10:59;100529.78;;;25.11;46.95
34931;BME280;21134;49.646;8.560;2022-09-12T12:13:29;100515.81;;;25.11;45.32
34931;BME280;21134;49.646;8.560;2022-09-12T12:15:58;100518.66;;;25.22;47.20
34931;BME280;21134;49.646;8.560;2022-09-12T12:18:28;100514.09;;;25.25;44.61
34931;BME280;21134;49.646;8.560;2022-09-12T12:20:56;;;;25.23;
34931;BME280;21134;49.646;8.560;2022-09-12T12:23:33;100510.16;;;25.18;45.20
34931;BME280;21134;49.646;8.560;2022-09-12T12:26:02;100505.47;;;25.23;46.06
34931;BME280;21134;49.646;8.560;2022-09-12T12:28:57;100501.63;;;25.43;47.32
34931;BME280;21134;49.646;8.560;2022-09-12T12:31:24;100509.44;;;25.58;46.85
34931;BME280;21134;49.646;8.560;2022-09-12T12:33:53;100502.88;;;25.65;46.72
34931;BME280;21134;49.646;8.560;2022-09-12T12:36:34;100498.75;;;25.75;45.55
34931;BME280;21134;49.646;8.560;2022-09-12T12:48:48;100474.00;;;26.06;44.48
34931;BME280;21134;49.646;8.560;2022-09-12T12:54:28;100464.34;;;26.07;44.74
34931;BME280;21134;49.646;8.560;2022-09-12T12:57:05;100469.94;;;26.15;44.86
34931;BME280;21134;49.646;8.560;2022-09-12T12:59:45;100465.25;;;26.33;43.75
34931;BME280;21134;49.646;8.560;2022-09-12T13:02:19;100472.91;;;26.23;42.51
34931;BME280;21134;49.646;8.560;2022-09-12T13:04:49;100471.00;;;26.38;43.35
34931;BME280;21134;49.646;8.560;2022-09-12T13:07:25;100460.28;;;26.28;42.69
34931;BME280;21134;49.646;8.560;2022-09-12T13:09:53;100463.75;;;26.29;43.81
34931;BME280;21134;49.646;8.560;2022-09-12T13:12:21;100453.28;;;26.41;43.33
34931;BME280;21134;49.646;8.560;2022-09-12T13:14:52;100452.13;;;26.46;40.81
34931;BME280;21134;49.646;8.560;2022-09-12T13:17:26;100449.34;;;26.61;42.18
34931;BME280;21134;49.646;8.560;2022-09-12T13:20:17;100445.84;;;26.61;42.72
34931;BME280;21134;49.646;8.560;2022-09-12T13:22:47;100442.50;;;26.72;39.38
34931;BME280;21134;49.646;8.560;2022-09-12T13:25:22;100435.66;;;26.82;40.39